Time;durP1;ratioP1;P1;durP2;ratioP2;P2;SDS_P1;SDS_P2;PMS_P1;PMS_P2;Temp;Humidity;BMP_temperature;BMP_pressure;BME280_temperature;BME280_humidity;BME280_pressure;Samples;Min_cycle;Max_cycle;Signal;HPM_P1;HPM_P2
2020/12/04 00:00:22;;;;;;;1999.90;999.90;;;;;;;2.13;80.71;97005.59;5041041;28;20103;-66
2020/12/04 00:02:48;;;;;;;1999.90;999.90;;;;;;;1.77;83.01;97003.53;5044313;28;20083;-64
2020/12/04 00:05:14;;;;;;;1999.90;999.90;;;;;;;1.58;82.76;96998.97;5044553;28;20492;-65
2020/12/04 00:07:41;;;;;;;1999.90;999.90;;;;;;;1.89;83.20;96997.59;5044234;28;20134;-65
2020/12/04 00:10:07;;;;;;;1999.90;999.90;;;;;;;2.51;80.94;96994.44;5045035;28;20094;-65
2020/12/04 00:12:33;;;;;;;1999.90;999.90;;;;;;;2.80;79.16;96985.09;5044701;28;20488;-66
2020/12/04 00:14:59;;;;;;;1999.90;999.90;;;;;;;3.04;78.18;96982.06;5044317;28;20103;-66
2020/12/04 00:17:25;;;;;;;1999.90;999.90;;;;;;;3.12;77.75;96978.56;5037674;28;20091;-66
2020/12/04 00:19:51;;;;;;;1999.90;999.90;;;;;;;3.29;77.14;96971.59;5039949;28;20052;-66
2020/12/04 00:22:17;;;;;;;1999.90;999.90;;;;;;;3.15;77.58;96967.00;5039288;28;20463;-67
2020/12/04 00:24:43;;;;;;;1999.90;999.90;;;;;;;2.95;78.67;96971.06;5038330;28;20048;-66
2020/12/04 00:27:10;;;;;;;1999.90;999.90;;;;;;;2.40;79.83;96972.03;5044037;28;20492;-67
2020/12/04 00:29:36;;;;;;;1999.90;999.90;;;;;;;2.30;80.81;96961.31;5044662;28;20053;-66
2020/12/04 00:32:02;;;;;;;1999.90;999.90;;;;;;;2.76;80.06;96978.63;5044514;28;20219;-65
2020/12/04 00:34:28;;;;;;;1999.90;999.90;;;;;;;2.86;78.87;96972.09;5044409;28;20463;-67
2020/12/04 00:36:55;;;;;;;1999.90;999.90;;;;;;;2.81;78.49;96971.13;5044694;28;20092;-66
2020/12/04 00:39:21;;;;;;;1999.90;999.90;;;;;;;2.60;79.25;96964.50;5027287;28;20038;-66
2020/12/04 00:41:47;;;;;;;1999.90;999.90;;;;;;;2.76;79.22;96960.31;5038660;28;20099;-66
2020/12/04 00:44:13;;;;;;;1999.90;999.90;;;;;;;2.67;78.85;96962.16;5044558;28;20592;-66
2020/12/04 00:46:40;;;;;;;1999.90;999.90;;;;;;;2.73;79.21;96958.19;5033935;28;20049;-65
2020/12/04 00:49:06;;;;;;;1999.90;999.90;;;;;;;2.91;79.04;96952.88;5042353;28;20037;-66
2020/12/04 00:51:32;;;;;;;1999.90;999.90;;;;;;;2.98;78.80;96947.78;5044185;28;20060;-66
2020/12/04 00:53:59;;;;;;;1999.90;999.90;;;;;;;3.19;77.91;96959.03;5043888;28;20057;-67
2020/12/04 00:56:35;;;;;;;1999.90;999.90;;;;;;;3.14;78.14;96961.88;5034687;28;20503;-65
2020/12/04 00:59:01;;;;;;;1999.90;999.90;;;;;;;3.12;79.08;96953.19;5042865;28;20079;-66
2020/12/04 01:01:28;;;;;;;1999.90;999.90;;;;;;;3.18;79.22;96950.00;5044371;28;20408;-65
2020/12/04 01:03:54;;;;;;;1999.90;999.90;;;;;;;3.07;80.46;96951.38;5044010;28;20392;-66
2020/12/04 01:06:23;;;;;;;1999.90;999.90;;;;;;;2.74;81.79;96948.06;5037694;28;20106;-66
2020/12/04 01:08:49;;;;;;;1999.90;999.90;;;;;;;2.19;84.09;96949.84;5043818;28;20052;-65
2020/12/04 01:11:19;;;;;;;1999.90;999.90;;;;;;;2.34;84.73;96954.16;5044629;28;20045;-65
2020/12/04 01:13:45;;;;;;;1999.90;999.90;;;;;;;2.19;85.52;96943.56;5044863;28;20321;-66
2020/12/04 01:16:11;;;;;;;1999.90;999.90;;;;;;;2.91;82.66;96941.97;5043955;28;20102;-66
2020/12/04 01:18:38;;;;;;;1999.90;999.90;;;;;;;3.04;81.37;96943.81;5043623;28;20040;-63
2020/12/04 01:21:07;;;;;;;1999.90;999.90;;;;;;;3.26;80.43;96934.81;5036860;28;20051;-63
2020/12/04 01:23:33;;;;;;;1999.90;999.90;;;;;;;2.94;80.94;96936.66;5043626;28;20045;-63
2020/12/04 01:26:00;;;;;;;1999.90;999.90;;;;;;;2.44;83.52;96928.56;5039350;28;20126;-63
2020/12/04 01:28:26;;;;;;;1999.90;999.90;;;;;;;2.87;82.34;96936.28;5040755;28;20057;-63
2020/12/04 01:30:53;;;;;;;1999.90;999.90;;;;;;;2.93;81.77;96923.31;5026546;28;20069;-63
2020/12/04 01:33:19;;;;;;;1999.90;999.90;;;;;;;3.18;80.94;96913.69;5029744;28;20057;-64
2020/12/04 01:35:45;;;;;;;1999.90;999.90;;;;;;;3.33;80.01;96910.59;5037023;28;20066;-63
2020/12/04 01:38:11;;;;;;;1999.90;999.90;;;;;;;2.86;82.00;96907.41;5047755;28;20068;-64
2020/12/04 01:40:38;;;;;;;1999.90;999.90;;;;;;;2.98;81.70;96891.25;5036570;28;20041;-64
2020/12/04 01:43:04;;;;;;;1999.90;999.90;;;;;;;2.98;81.38;96895.91;5048048;28;20045;-65
2020/12/04 01:45:35;;;;;;;1999.90;999.90;;;;;;;3.22;80.17;96892.03;5047580;28;20052;-64
2020/12/04 01:48:03;;;;;;;1999.90;999.90;;;;;;;3.21;80.37;96898.59;5047642;28;20106;-65
2020/12/04 01:50:29;;;;;;;1999.90;999.90;;;;;;;3.47;79.84;96894.09;5036663;28;20057;-64
2020/12/04 01:52:57;;;;;;;1999.90;999.90;;;;;;;3.60;78.69;96897.03;5036482;28;20102;-65
2020/12/04 01:55:24;;;;;;;1999.90;999.90;;;;;;;3.53;78.88;96890.09;5037946;28;20052;-65
2020/12/04 01:57:53;;;;;;;1999.90;999.90;;;;;;;3.80;78.39;96880.06;5047016;28;20554;-64
2020/12/04 02:00:19;;;;;;;1999.90;999.90;;;;;;;3.80;78.57;96882.00;5047550;28;20500;-65
2020/12/04 02:02:47;;;;;;;1999.90;999.90;;;;;;;3.77;78.34;96877.16;5036211;28;20040;-65
2020/12/04 02:05:15;;;;;;;1999.90;999.90;;;;;;;3.25;80.55;96869.56;5047236;28;20049;-65
2020/12/04 02:08:15;;;;;;;1999.90;999.90;;;;;;;3.22;81.39;96865.50;5036901;28;20049;-65
2020/12/04 02:10:59;;;;;;;1999.90;999.90;;;;;;;2.93;83.78;96860.53;5047140;28;20052;-65
2020/12/04 02:13:27;;;;;;;1999.90;999.90;;;;;;;2.99;83.47;96862.81;5046681;28;20241;-65
2020/12/04 02:15:54;;;;;;;1999.90;999.90;;;;;;;3.30;82.54;96851.06;5046720;28;20060;-65
2020/12/04 02:18:20;;;;;;;1999.90;999.90;;;;;;;3.03;83.00;96849.34;5046893;28;20049;-65
2020/12/04 02:20:57;;;;;;;1999.90;999.90;;;;;;;3.64;81.96;96855.06;5047080;28;20037;-65
2020/12/04 02:23:23;;;;;;;1999.90;999.90;;;;;;;3.93;80.60;96850.16;5045909;28;20049;-65
2020/12/04 02:25:50;;;;;;;1999.90;999.90;;;;;;;4.21;79.05;96843.28;5046772;28;20061;-65
2020/12/04 02:28:16;;;;;;;1999.90;999.90;;;;;;;4.48;77.50;96844.09;5046259;28;20052;-65
2020/12/04 02:30:42;;;;;;;1999.90;999.90;;;;;;;4.72;76.82;96840.84;5047072;28;20065;-65
2020/12/04 02:33:08;;;;;;;1999.90;999.90;;;;;;;5.00;75.86;96850.63;5047207;28;20102;-65
2020/12/04 02:35:34;;;;;;;1999.90;999.90;;;;;;;4.99;75.49;96849.00;5045133;28;20057;-65
2020/12/04 02:38:01;;;;;;;1999.90;999.90;;;;;;;4.56;76.44;96851.50;5046942;28;20700;-66
2020/12/04 02:40:27;;;;;;;1999.90;999.90;;;;;;;4.49;77.17;96844.91;5046642;28;20094;-66
2020/12/04 02:42:54;;;;;;;1999.90;999.90;;;;;;;4.35;77.76;96839.59;5046006;28;20496;-65
2020/12/04 02:45:21;;;;;;;1999.90;999.90;;;;;;;4.54;77.45;96841.97;5046592;28;20057;-65
2020/12/04 02:47:47;;;;;;;1999.90;999.90;;;;;;;4.57;76.85;96847.63;5046510;28;20053;-65
2020/12/04 02:50:13;;;;;;;1999.90;999.90;;;;;;;4.63;76.58;96839.25;5047140;28;20396;-65
2020/12/04 02:52:39;;;;;;;1999.90;999.90;;;;;;;4.53;77.45;96838.44;5046054;28;20063;-65
2020/12/04 02:55:05;;;;;;;1999.90;999.90;;;;;;;4.64;77.36;96827.19;5046690;28;20098;-65
2020/12/04 02:57:31;;;;;;;1999.90;999.90;;;;;;;4.51;77.96;96816.09;5036414;28;20559;-65
2020/12/04 02:59:57;;;;;;;1999.90;999.90;;;;;;;3.84;79.90;96814.59;5040722;28;20053;-65
2020/12/04 03:02:23;;;;;;;1999.90;999.90;;;;;;;4.08;79.26;96827.84;5032984;28;20417;-65
2020/12/04 03:04:49;;;;;;;1999.90;999.90;;;;;;;4.17;79.04;96827.84;5042539;28;20058;-65
2020/12/04 03:07:15;;;;;;;1999.90;999.90;;;;;;;4.31;78.48;96825.72;5031138;28;20058;-65
2020/12/04 03:09:42;;;;;;;1999.90;999.90;;;;;;;4.38;77.79;96828.00;5041177;28;20106;-65
2020/12/04 03:12:08;;;;;;;1999.90;999.90;;;;;;;3.83;78.28;96827.47;5025912;28;20053;-65
2020/12/04 03:14:34;;;;;;;1999.90;999.90;;;;;;;3.48;81.20;96827.38;5024718;28;20270;-65
2020/12/04 03:17:00;;;;;;;1999.90;999.90;;;;;;;3.78;80.38;96835.81;5026449;28;20057;-65
2020/12/04 03:19:26;;;;;;;1999.90;999.90;;;;;;;4.22;78.61;96831.19;5026586;28;20075;-65
2020/12/04 03:21:52;;;;;;;1999.90;999.90;;;;;;;3.62;80.12;96823.72;5025916;28;20058;-65
2020/12/04 03:24:18;;;;;;;1999.90;999.90;;;;;;;3.62;80.59;96812.78;5025877;28;20067;-65
2020/12/04 03:26:45;;;;;;;1999.90;999.90;;;;;;;3.59;80.41;96816.13;5039592;28;20057;-65
2020/12/04 03:29:11;;;;;;;1999.90;999.90;;;;;;;3.88;80.05;96810.91;5026068;28;20448;-65
2020/12/04 03:31:38;;;;;;;1999.90;999.90;;;;;;;3.93;78.95;96817.34;5026085;28;20064;-65
2020/12/04 03:34:04;;;;;;;1999.90;999.90;;;;;;;3.98;79.25;96809.00;5026089;28;20104;-65
2020/12/04 03:36:30;;;;;;;1999.90;999.90;;;;;;;4.07;78.54;96811.75;5035524;28;20044;-65
2020/12/04 03:38:56;;;;;;;1999.90;999.90;;;;;;;4.02;78.12;96810.75;5029494;28;20048;-65
2020/12/04 03:41:22;;;;;;;1999.90;999.90;;;;;;;4.13;78.71;96811.25;5033549;28;20053;-65
2020/12/04 03:43:48;;;;;;;1999.90;999.90;;;;;;;4.36;77.40;96808.34;5045561;28;20057;-65
2020/12/04 03:46:14;;;;;;;1999.90;999.90;;;;;;;3.45;79.33;96800.66;5025777;28;20049;-65
2020/12/04 03:48:41;;;;;;;1999.90;999.90;;;;;;;3.91;79.58;96809.44;5037106;28;20049;-66
2020/12/04 03:51:08;;;;;;;1999.90;999.90;;;;;;;3.82;79.01;96805.91;5045135;28;20052;-66
2020/12/04 03:53:35;;;;;;;1999.90;999.90;;;;;;;3.67;79.87;96809.91;5045520;28;20048;-65
2020/12/04 03:56:02;;;;;;;1999.90;999.90;;;;;;;3.24;81.07;96786.78;5033772;28;20049;-66
2020/12/04 03:58:28;;;;;;;1999.90;999.90;;;;;;;3.10;82.81;96797.81;5044477;28;20098;-66
2020/12/04 04:00:55;;;;;;;1999.90;999.90;;;;;;;2.86;83.42;96805.56;5034939;28;20051;-66
2020/12/04 04:03:21;;;;;;;1999.90;999.90;;;;;;;2.93;83.78;96797.72;5045102;28;20044;-66
2020/12/04 04:05:47;;;;;;;1999.90;999.90;;;;;;;2.80;84.14;96794.78;5045015;28;20427;-63
2020/12/04 04:08:14;;;;;;;1999.90;999.90;;;;;;;3.56;81.53;96801.19;5038621;28;20052;-63
2020/12/04 04:10:40;;;;;;;1999.90;999.90;;;;;;;3.76;80.92;96794.31;5044789;28;20107;-63
2020/12/04 04:13:06;;;;;;;1999.90;999.90;;;;;;;3.67;80.59;96802.50;5037408;28;20281;-63
2020/12/04 04:15:32;;;;;;;1999.90;999.90;;;;;;;3.59;81.13;96803.28;5042743;28;20680;-64
2020/12/04 04:18:01;;;;;;;1999.90;999.90;;;;;;;3.28;81.99;96795.16;5039884;28;20048;-64
2020/12/04 04:20:27;;;;;;;1999.90;999.90;;;;;;;3.33;82.03;96795.00;5045144;28;20048;-64
2020/12/04 04:22:54;;;;;;;1999.90;999.90;;;;;;;3.50;81.89;96794.28;5044484;28;20342;-64
2020/12/04 04:25:20;;;;;;;1999.90;999.90;;;;;;;3.60;82.32;96810.34;5036190;28;20310;-64
2020/12/04 04:27:46;;;;;;;1999.90;999.90;;;;;;;3.86;80.72;96791.28;5039884;28;20049;-64
2020/12/04 04:30:13;;;;;;;1999.90;999.90;;;;;;;3.74;81.18;96793.84;5041070;28;20500;-64
2020/12/04 04:32:39;;;;;;;1999.90;999.90;;;;;;;3.75;81.40;96778.22;5036072;28;20300;-64
2020/12/04 04:35:07;;;;;;;1999.90;999.90;;;;;;;4.54;79.12;96785.31;5044543;28;20056;-64
2020/12/04 04:37:34;;;;;;;1999.90;999.90;;;;;;;4.44;78.65;96780.19;5044114;28;20675;-64
2020/12/04 04:40:00;;;;;;;1999.90;999.90;;;;;;;4.15;79.07;96776.16;5044445;28;20049;-64
2020/12/04 04:42:26;;;;;;;1999.90;999.90;;;;;;;4.05;79.25;96773.78;5036181;28;20511;-64
2020/12/04 04:44:55;;;;;;;1999.90;999.90;;;;;;;4.37;79.30;96780.66;5044730;28;20053;-64
2020/12/04 04:47:28;;;;;;;1999.90;999.90;;;;;;;4.36;78.96;96775.50;5044210;28;20057;-65
2020/12/04 04:49:55;;;;;;;1999.90;999.90;;;;;;;4.87;76.89;96773.81;5030233;28;20609;-64
2020/12/04 04:52:23;;;;;;;1999.90;999.90;;;;;;;5.03;75.98;96792.44;5032751;28;20188;-65
2020/12/04 04:54:50;;;;;;;1999.90;999.90;;;;;;;5.25;75.19;96789.44;5039234;28;20053;-64
2020/12/04 04:57:21;;;;;;;1999.90;999.90;;;;;;;5.28;74.67;96793.47;5039796;28;20052;-65
2020/12/04 04:59:54;;;;;;;1999.90;999.90;;;;;;;5.23;74.68;96791.72;5033641;28;20056;-64
2020/12/04 05:02:21;;;;;;;1999.90;999.90;;;;;;;5.18;74.78;96789.19;5044246;28;20132;-65
2020/12/04 05:04:47;;;;;;;1999.90;999.90;;;;;;;5.16;75.44;96794.16;5033916;28;20045;-65
2020/12/04 05:07:15;;;;;;;1999.90;999.90;;;;;;;5.17;75.42;96804.00;5043177;28;20098;-65
2020/12/04 05:09:41;;;;;;;1999.90;999.90;;;;;;;5.28;75.29;96810.75;5033750;28;20049;-65
2020/12/04 05:12:08;;;;;;;1999.90;999.90;;;;;;;5.61;74.02;96801.06;5036180;28;20103;-64
2020/12/04 05:14:34;;;;;;;1999.90;999.90;;;;;;;5.63;73.38;96799.59;5041621;28;20053;-65
2020/12/04 05:17:08;;;;;;;1999.90;999.90;;;;;;;5.02;74.62;96797.13;5050890;28;20045;-65
2020/12/04 05:19:41;;;;;;;1999.90;999.90;;;;;;;4.41;77.90;96792.56;5031232;28;20115;-65
2020/12/04 05:22:16;;;;;;;1999.90;999.90;;;;;;;4.91;76.61;96795.84;5038028;28;20107;-65
2020/12/04 05:24:44;;;;;;;1999.90;999.90;;;;;;;5.21;75.55;96785.78;5027855;28;20126;-64
2020/12/04 05:27:29;;;;;;;1999.90;999.90;;;;;;;5.40;74.81;96792.78;5024117;28;20454;-64
2020/12/04 05:29:59;;;;;;;1999.90;999.90;;;;;;;5.58;74.02;96786.09;5023898;28;20061;-65
2020/12/04 05:32:27;;;;;;;1999.90;999.90;;;;;;;5.46;74.25;96796.94;5044199;28;20076;-65
2020/12/04 05:35:08;;;;;;;1999.90;999.90;;;;;;;4.92;76.74;96792.78;5044023;28;20477;-65
2020/12/04 05:37:34;;;;;;;1999.90;999.90;;;;;;;3.81;80.89;96794.16;5043820;28;20048;-64
2020/12/04 05:40:00;;;;;;;1999.90;999.90;;;;;;;4.28;81.19;96792.75;5043983;28;20049;-64
2020/12/04 05:42:40;;;;;;;1999.90;999.90;;;;;;;4.67;79.74;96774.50;5043414;28;20114;-65
2020/12/04 05:45:07;;;;;;;1999.90;999.90;;;;;;;4.71;78.99;96780.94;5043817;28;20562;-64
2020/12/04 05:47:40;;;;;;;1999.90;999.90;;;;;;;5.27;76.73;96791.91;5043091;28;20485;-63
2020/12/04 05:50:08;;;;;;;1999.90;999.90;;;;;;;5.57;75.54;96792.72;5043793;28;20607;-64
2020/12/04 05:52:36;;;;;;;1999.90;999.90;;;;;;;5.79;74.70;96797.09;5038899;28;20049;-64
2020/12/04 05:55:03;;;;;;;1999.90;999.90;;;;;;;5.72;74.51;96796.03;5035123;28;20057;-64
2020/12/04 05:57:37;;;;;;;1999.90;999.90;;;;;;;5.78;74.08;96806.47;5043254;28;20492;-64
2020/12/04 06:00:03;;;;;;;1999.90;999.90;;;;;;;5.60;74.83;96805.75;5033628;28;20045;-64
2020/12/04 06:02:29;;;;;;;1999.90;999.90;;;;;;;5.73;74.22;96814.88;5033696;28;20073;-63
2020/12/04 06:04:55;;;;;;;1999.90;999.90;;;;;;;5.46;75.29;96811.47;5032798;28;20102;-64
2020/12/04 06:07:27;;;;;;;1999.90;999.90;;;;;;;5.80;74.20;96809.66;5043451;28;20447;-64
2020/12/04 06:09:56;;;;;;;1999.90;999.90;;;;;;;4.71;77.41;96808.31;5029938;28;20045;-64
2020/12/04 06:12:23;;;;;;;1999.90;999.90;;;;;;;4.91;77.70;96799.44;5037760;28;20327;-64
2020/12/04 06:14:50;;;;;;;1999.90;999.90;;;;;;;5.37;76.06;96796.19;5041163;28;20053;-64
2020/12/04 06:17:16;;;;;;;1999.90;999.90;;;;;;;5.16;76.62;96799.66;5035618;28;20132;-64
2020/12/04 06:19:43;;;;;;;1999.90;999.90;;;;;;;5.55;75.61;96811.44;5032055;28;20115;-64
2020/12/04 06:22:14;;;;;;;1999.90;999.90;;;;;;;5.59;75.13;96804.13;5033486;28;20064;-64
2020/12/04 06:25:02;;;;;;;1999.90;999.90;;;;;;;4.74;78.19;96802.19;5047088;28;20110;-63
2020/12/04 06:27:46;;;;;;;1999.90;999.90;;;;;;;4.85;78.80;96811.66;5035168;28;20408;-64
2020/12/04 06:30:17;;;;;;;1999.90;999.90;;;;;;;5.30;77.22;96818.66;5046306;28;20068;-64
2020/12/04 06:32:48;;;;;;;1999.90;999.90;;;;;;;4.71;79.71;96813.81;5046958;28;20049;-64
2020/12/04 06:35:40;;;;;;;1999.90;999.90;;;;;;;4.88;78.37;96822.00;5032499;28;20092;-64
2020/12/04 06:38:33;;;;;;;1999.90;999.90;;;;;;;3.53;85.09;96807.28;5046726;28;20092;-64
2020/12/04 06:41:17;;;;;;;1999.90;999.90;;;;;;;4.24;83.33;96803.50;5032976;28;20053;-64
2020/12/04 06:43:45;;;;;;;1999.90;999.90;;;;;;;4.52;82.59;96801.25;5046207;28;20053;-64
2020/12/04 06:46:48;;;;;;;1999.90;999.90;;;;;;;4.83;81.92;96800.22;5046622;28;20053;-64
2020/12/04 06:52:09;;;;;;;1999.90;999.90;;;;;;;5.81;79.22;96810.47;5032899;28;20045;-64
2020/12/04 06:54:39;;;;;;;1999.90;999.90;;;;;;;6.40;76.93;96797.81;5040626;28;20045;-64
2020/12/04 06:57:06;;;;;;;1999.90;999.90;;;;;;;6.25;76.86;96802.78;5030126;28;20049;-64
2020/12/04 06:59:38;;;;;;;1999.90;999.90;;;;;;;6.21;77.23;96796.34;5032378;28;20044;-65
2020/12/04 07:02:16;;;;;;;1999.90;999.90;;;;;;;6.22;76.35;96786.19;5044671;28;20053;-64
2020/12/04 07:04:47;;;;;;;1999.90;999.90;;;;;;;6.32;76.43;96791.25;5039666;28;20072;-64
2020/12/04 07:07:13;;;;;;;1999.90;999.90;;;;;;;6.12;76.67;96790.16;5039713;28;20045;-65
2020/12/04 07:09:41;;;;;;;1999.90;999.90;;;;;;;6.18;77.06;96794.28;5035316;28;20049;-65
2020/12/04 07:12:09;;;;;;;1999.90;999.90;;;;;;;6.65;74.73;96787.75;5046185;28;20053;-65
2020/12/04 07:14:36;;;;;;;1999.90;999.90;;;;;;;7.25;73.02;96785.50;5045790;28;20546;-65
2020/12/04 07:17:04;;;;;;;1999.90;999.90;;;;;;;6.71;73.62;96783.63;5036156;28;20079;-65
2020/12/04 07:19:31;;;;;;;1999.90;999.90;;;;;;;6.29;75.42;96780.97;5033135;28;20127;-65
2020/12/04 07:21:57;;;;;;;1999.90;999.90;;;;;;;6.14;76.54;96772.19;5030000;28;20500;-65
2020/12/04 07:24:23;;;;;;;1999.90;999.90;;;;;;;6.08;76.93;96770.00;5046029;28;20146;-65
2020/12/04 07:26:54;;;;;;;1999.90;999.90;;;;;;;5.84;77.92;96782.38;5045675;28;20049;-65
2020/12/04 07:29:21;;;;;;;1999.90;999.90;;;;;;;5.35;80.52;96776.53;5045041;28;20130;-64
2020/12/04 07:31:51;;;;;;;1999.90;999.90;;;;;;;5.13;81.07;96777.59;5043374;28;20118;-64
2020/12/04 07:34:20;;;;;;;1999.90;999.90;;;;;;;5.43;80.39;96767.44;5033923;28;20052;-64
2020/12/04 07:36:59;;;;;;;1999.90;999.90;;;;;;;4.92;82.06;96775.56;5044837;28;20122;-64
2020/12/04 07:39:34;;;;;;;1999.90;999.90;;;;;;;5.24;81.57;96768.69;5046024;28;20136;-64
2020/12/04 07:42:01;;;;;;;1999.90;999.90;;;;;;;5.78;79.56;96756.28;5043571;28;20086;-64
2020/12/04 07:44:50;;;;;;;1999.90;999.90;;;;;;;5.15;82.03;96756.13;5033703;28;20439;-64
2020/12/04 07:47:17;;;;;;;1999.90;999.90;;;;;;;6.12;79.07;96751.72;5041954;28;20080;-64
2020/12/04 07:49:56;;;;;;;1999.90;999.90;;;;;;;6.47;78.00;96746.69;5033954;28;20476;-64
2020/12/04 07:52:24;;;;;;;1999.90;999.90;;;;;;;6.97;75.39;96739.41;5045001;28;20041;-65
2020/12/04 07:55:02;;;;;;;1999.90;999.90;;;;;;;6.93;74.71;96752.22;5045070;28;20729;-65
2020/12/04 07:57:36;;;;;;;1999.90;999.90;;;;;;;6.80;76.38;96761.56;5045408;28;20057;-65
2020/12/04 08:00:07;;;;;;;1999.90;999.90;;;;;;;7.28;74.56;96748.25;5034015;28;20107;-64
2020/12/04 08:02:34;;;;;;;1999.90;999.90;;;;;;;6.85;75.56;96731.16;5037601;28;20084;-64
2020/12/04 08:05:00;;;;;;;1999.90;999.90;;;;;;;6.83;76.71;96738.91;5037641;28;20049;-64
2020/12/04 08:07:32;;;;;;;1999.90;999.90;;;;;;;7.17;75.79;96737.69;5041815;28;20045;-64
2020/12/04 08:09:59;;;;;;;1999.90;999.90;;;;;;;7.13;76.01;96746.97;5041867;28;20042;-65
2020/12/04 08:12:29;;;;;;;1999.90;999.90;;;;;;;7.38;75.71;96747.78;5042465;28;20052;-65
2020/12/04 08:14:58;;;;;;;1999.90;999.90;;;;;;;7.78;74.34;96749.03;5042063;28;20053;-65
2020/12/04 08:17:28;;;;;;;1999.90;999.90;;;;;;;8.09;72.88;96751.94;5041984;28;20370;-65
2020/12/04 08:19:55;;;;;;;1999.90;999.90;;;;;;;7.83;74.22;96757.03;5026169;28;20046;-65
2020/12/04 08:22:30;;;;;;;1999.90;999.90;;;;;;;7.57;74.99;96744.47;5031143;28;20060;-65
2020/12/04 08:25:05;;;;;;;1999.90;999.90;;;;;;;7.61;75.54;96744.56;5032992;28;20103;-65
2020/12/04 08:27:44;;;;;;;1999.90;999.90;;;;;;;8.34;72.81;96742.81;5025273;28;20359;-65
2020/12/04 08:30:18;;;;;;;1999.90;999.90;;;;;;;7.82;74.11;96745.25;5041861;28;20546;-65
2020/12/04 08:32:49;;;;;;;1999.90;999.90;;;;;;;7.65;75.25;96735.31;5041688;28;20118;-65
2020/12/04 08:35:38;;;;;;;1999.90;999.90;;;;;;;7.89;74.78;96734.44;5041712;28;20456;-65
2020/12/04 08:38:10;;;;;;;1999.90;999.90;;;;;;;7.76;75.06;96747.41;5037888;28;20059;-65
2020/12/04 08:40:39;;;;;;;1999.90;999.90;;;;;;;7.66;75.43;96736.88;5041118;28;20052;-65
2020/12/04 08:43:12;;;;;;;1999.90;999.90;;;;;;;7.97;74.62;96734.66;5032845;28;20053;-65
2020/12/04 08:45:46;;;;;;;1999.90;999.90;;;;;;;7.89;74.78;96733.63;5034157;28;20489;-65
2020/12/04 08:48:13;;;;;;;1999.90;999.90;;;;;;;7.82;74.98;96725.19;5040888;28;20071;-65
2020/12/04 08:50:50;;;;;;;1999.90;999.90;;;;;;;8.14;73.87;96728.06;5033954;28;20079;-65
2020/12/04 08:53:19;;;;;;;1999.90;999.90;;;;;;;7.86;74.12;96737.09;5041662;28;20053;-65
2020/12/04 08:55:50;;;;;;;1999.90;999.90;;;;;;;8.35;73.41;96745.22;5040834;28;20049;-65
2020/12/04 08:58:34;;;;;;;1999.90;999.90;;;;;;;8.73;71.76;96754.94;5041661;28;20060;-65
2020/12/04 09:01:01;;;;;;;1999.90;999.90;;;;;;;8.48;72.67;96762.50;5034268;28;20049;-66
2020/12/04 09:03:30;;;;;;;1999.90;999.90;;;;;;;8.67;71.33;96756.34;5040893;28;20115;-65
2020/12/04 09:05:56;;;;;;;1999.90;999.90;;;;;;;8.32;72.75;96756.94;5035673;28;20061;-65
2020/12/04 09:08:23;;;;;;;1999.90;999.90;;;;;;;8.67;72.25;96764.63;5035735;28;20189;-65
2020/12/04 09:10:49;;;;;;;1999.90;999.90;;;;;;;8.75;71.56;96769.19;5041094;28;20079;-65
2020/12/04 09:13:15;;;;;;;1999.90;999.90;;;;;;;8.92;70.83;96759.00;5033588;28;20552;-65
2020/12/04 09:15:46;;;;;;;1999.90;999.90;;;;;;;7.92;73.39;96749.47;5038507;28;20048;-65
2020/12/04 09:18:12;;;;;;;1999.90;999.90;;;;;;;8.10;73.77;96739.78;5034749;28;20048;-65
2020/12/04 09:20:38;;;;;;;1999.90;999.90;;;;;;;7.80;75.15;96736.53;5028847;28;20054;-65
2020/12/04 09:23:04;;;;;;;1999.90;999.90;;;;;;;8.03;73.92;96739.56;5027578;28;20050;-65
2020/12/04 09:25:32;;;;;;;1999.90;999.90;;;;;;;8.32;73.71;96745.94;5040516;28;20384;-65
2020/12/04 09:28:14;;;;;;;1999.90;999.90;;;;;;;8.79;72.31;96755.50;5040680;28;20476;-65
2020/12/04 09:30:40;;;;;;;1999.90;999.90;;;;;;;9.28;70.72;96740.59;5027076;28;20053;-65
2020/12/04 09:33:06;;;;;;;1999.90;999.90;;;;;;;8.82;70.90;96739.03;5041118;28;20734;-65
2020/12/04 09:35:32;;;;;;;1999.90;999.90;;;;;;;8.77;71.61;96742.06;5040346;28;20048;-65
2020/12/04 09:37:59;;;;;;;1999.90;999.90;;;;;;;8.99;70.86;96734.34;5041042;28;20061;-65
2020/12/04 09:40:26;;;;;;;1999.90;999.90;;;;;;;9.03;70.64;96729.72;5040021;28;20445;-65
2020/12/04 09:42:52;;;;;;;1999.90;999.90;;;;;;;9.31;70.05;96726.88;5029836;28;20068;-65
2020/12/04 09:45:18;;;;;;;1999.90;999.90;;;;;;;9.42;69.47;96732.66;5040788;28;20178;-65
2020/12/04 09:47:44;;;;;;;1999.90;999.90;;;;;;;9.33;69.68;96734.78;5040515;28;20045;-65
2020/12/04 09:50:15;;;;;;;1999.90;999.90;;;;;;;9.57;68.92;96735.75;5030195;28;20080;-65
2020/12/04 09:52:41;;;;;;;1999.90;999.90;;;;;;;9.30;69.89;96738.28;5040758;28;20074;-65
2020/12/04 09:55:09;;;;;;;1999.90;999.90;;;;;;;9.43;68.75;96731.50;5045087;28;20106;-65
2020/12/04 09:57:38;;;;;;;1999.90;999.90;;;;;;;9.93;67.80;96718.06;5044123;28;20558;-65
2020/12/04 10:00:06;;;;;;;1999.90;999.90;;;;;;;10.11;67.38;96714.84;5037672;28;20045;-65
2020/12/04 10:02:33;;;;;;;1999.90;999.90;;;;;;;10.14;66.37;96714.16;5041238;28;20128;-66
2020/12/04 10:04:59;;;;;;;1999.90;999.90;;;;;;;10.19;66.23;96702.81;5044236;28;20075;-66
2020/12/04 10:07:25;;;;;;;1999.90;999.90;;;;;;;10.42;66.22;96711.22;5034000;28;20050;-66
2020/12/04 10:09:52;;;;;;;1999.90;999.90;;;;;;;10.56;64.83;96705.94;5033407;28;20067;-65
2020/12/04 10:12:18;;;;;;;1999.90;999.90;;;;;;;10.12;66.09;96699.91;5044403;28;20053;-65
2020/12/04 10:14:45;;;;;;;1999.90;999.90;;;;;;;10.45;65.17;96707.72;5044515;28;20068;-67
2020/12/04 10:17:11;;;;;;;1999.90;999.90;;;;;;;10.66;64.36;96700.97;5044596;28;20060;-66
2020/12/04 10:19:37;;;;;;;1999.90;999.90;;;;;;;9.81;66.34;96694.13;5032496;28;20057;-66
2020/12/04 10:22:04;;;;;;;1999.90;999.90;;;;;;;10.24;65.81;96680.41;5044094;28;20219;-64
2020/12/04 10:24:31;;;;;;;1999.90;999.90;;;;;;;9.69;66.44;96678.50;5044678;28;20059;-64
2020/12/04 10:26:58;;;;;;;1999.90;999.90;;;;;;;9.83;66.92;96669.72;5042805;28;20056;-64
2020/12/04 10:29:24;;;;;;;1999.90;999.90;;;;;;;9.98;66.62;96678.31;5035355;28;20045;-64
2020/12/04 10:31:50;;;;;;;1999.90;999.90;;;;;;;9.94;66.92;96680.19;5018074;28;20103;-65
2020/12/04 10:34:17;;;;;;;1999.90;999.90;;;;;;;10.23;66.21;96678.84;5013017;28;20338;-64
2020/12/04 10:36:44;;;;;;;1999.90;999.90;;;;;;;10.29;65.91;96684.88;5023827;28;20061;-64
2020/12/04 10:39:11;;;;;;;1999.90;999.90;;;;;;;10.23;65.98;96698.16;5010741;28;20324;-64
2020/12/04 10:41:40;;;;;;;1999.90;999.90;;;;;;;10.84;64.64;96691.06;5024115;28;20115;-64
2020/12/04 10:44:08;;;;;;;1999.90;999.90;;;;;;;10.28;65.54;96688.78;5024813;28;20057;-64
2020/12/04 10:46:36;;;;;;;1999.90;999.90;;;;;;;10.55;65.72;96679.50;5024013;28;20166;-65
2020/12/04 10:49:03;;;;;;;1999.90;999.90;;;;;;;10.74;64.97;96669.56;5024172;28;20049;-65
2020/12/04 10:51:30;;;;;;;1999.90;999.90;;;;;;;11.18;63.68;96674.66;5006535;28;20057;-65
2020/12/04 10:53:56;;;;;;;1999.90;999.90;;;;;;;10.83;64.34;96680.38;5023724;28;20143;-65
2020/12/04 10:56:23;;;;;;;1999.90;999.90;;;;;;;10.63;64.74;96690.66;5020051;28;20494;-63
2020/12/04 10:58:53;;;;;;;1999.90;999.90;;;;;;;10.53;64.93;96686.53;5007897;28;20054;-63
2020/12/04 11:01:35;;;;;;;1999.90;999.90;;;;;;;10.75;64.20;96688.53;5021346;28;20057;-64
2020/12/04 11:06:28;;;;;;;1999.90;999.90;;;;;;;9.92;65.99;96696.34;5023666;28;20103;-63
2020/12/04 11:08:54;;;;;;;1999.90;999.90;;;;;;;10.12;65.27;96708.97;5024087;28;20511;-64
2020/12/04 11:11:27;;;;;;;1999.90;999.90;;;;;;;10.39;63.86;96700.84;5023101;28;20511;-65
2020/12/04 11:13:54;;;;;;;1999.90;999.90;;;;;;;10.43;63.94;96714.75;5014055;28;20119;-65